createdAt,value
2023-04-13T00:02:21.468Z,70.84
2023-04-13T00:04:50.884Z,70.58
2023-04-13T00:07:18.761Z,71.40
2023-04-13T00:09:47.439Z,71.48
2023-04-13T00:12:21.377Z,71.86
2023-04-13T00:14:50.986Z,72.40
2023-04-13T00:17:18.068Z,72.62
2023-04-13T00:19:47.985Z,73.05
2023-04-13T00:22:15.582Z,72.87
2023-04-13T00:24:44.170Z,72.98
2023-04-13T00:27:11.140Z,72.80
2023-04-13T00:29:38.404Z,72.93
2023-04-13T00:32:05.444Z,72.97
2023-04-13T00:34:32.388Z,72.86
2023-04-13T00:37:02.168Z,72.27
2023-04-13T00:39:31.375Z,72.28
2023-04-13T00:42:02.264Z,72.68
2023-04-13T00:44:30.816Z,72.89
2023-04-13T00:46:57.813Z,72.99
2023-04-13T00:49:24.780Z,72.88
2023-04-13T00:51:51.711Z,72.51
2023-04-13T00:54:19.045Z,71.89
2023-04-13T00:56:46.179Z,71.83
2023-04-13T00:59:13.179Z,72.08
2023-04-13T01:01:46.896Z,72.29
2023-04-13T01:04:14.162Z,72.13
2023-04-13T01:06:45.103Z,72.10
2023-04-13T01:09:15.553Z,72.11
2023-04-13T01:11:49.427Z,71.94
2023-04-13T01:14:26.359Z,70.67
2023-04-13T01:16:59.224Z,69.02
2023-04-13T01:19:59.846Z,66.82
2023-04-13T01:22:30.525Z,65.55
2023-04-13T01:24:58.015Z,64.38
2023-04-13T01:27:42.350Z,64.92
2023-04-13T01:30:13.596Z,65.13
2023-04-13T01:32:42.264Z,66.16
2023-04-13T01:35:11.906Z,66.56
2023-04-13T01:37:43.349Z,65.95
2023-04-13T01:40:15.192Z,66.22
2023-04-13T01:42:47.910Z,65.65
2023-04-13T01:45:23.556Z,65.51
2023-04-13T01:48:11.847Z,66.37
2023-04-13T01:51:08.679Z,65.94
2023-04-13T01:53:49.204Z,66.02
2023-04-13T01:56:19.355Z,64.88
2023-04-13T01:58:52.049Z,66.45
2023-04-13T02:01:19.812Z,66.33
2023-04-13T02:03:46.959Z,66.65
2023-04-13T02:06:14.644Z,67.27
2023-04-13T02:08:43.033Z,67.70
2023-04-13T02:11:10.303Z,68.03
2023-04-13T02:13:37.890Z,68.60
2023-04-13T02:16:26.138Z,67.80
2023-04-13T02:18:53.072Z,67.61
2023-04-13T02:21:20.844Z,66.64
2023-04-13T02:23:49.415Z,66.73
2023-04-13T02:26:16.544Z,66.32
2023-04-13T02:28:43.570Z,66.20
2023-04-13T02:31:10.529Z,66.21
2023-04-13T02:33:37.854Z,65.92
2023-04-13T02:36:05.462Z,65.56
2023-04-13T02:38:39.720Z,65.98
2023-04-13T02:41:13.656Z,66.16
2023-04-13T02:43:40.818Z,66.52
2023-04-13T02:46:08.864Z,66.90
2023-04-13T02:48:38.757Z,66.66
2023-04-13T02:51:07.061Z,66.48
2023-04-13T02:53:38.112Z,67.06
2023-04-13T02:56:07.799Z,67.60
2023-04-13T02:58:35.252Z,67.01
2023-04-13T03:01:06.705Z,66.93
2023-04-13T03:03:34.796Z,67.10
2023-04-13T03:06:02.149Z,67.66
2023-04-13T03:08:46.368Z,67.76
2023-04-13T03:11:23.635Z,68.07
2023-04-13T03:14:01.601Z,67.96
2023-04-13T03:16:30.701Z,67.43
2023-04-13T03:18:58.220Z,67.35
2023-04-13T03:21:26.296Z,68.20
2023-04-13T03:24:05.392Z,68.08
2023-04-13T03:26:32.697Z,67.81
2023-04-13T03:29:04.203Z,68.42
2023-04-13T03:31:35.288Z,68.88
2023-04-13T03:34:02.388Z,68.88
2023-04-13T03:36:29.706Z,69.37
2023-04-13T03:38:58.110Z,69.43
2023-04-13T03:41:27.690Z,69.37
2023-04-13T03:43:54.663Z,69.61
2023-04-13T03:46:22.080Z,69.34
2023-04-13T03:48:49.493Z,69.14
2023-04-13T03:51:21.873Z,69.39
2023-04-13T03:53:50.831Z,69.80
2023-04-13T03:56:23.903Z,69.58
2023-04-13T03:58:55.441Z,69.51
2023-04-13T04:01:26.075Z,69.73
2023-04-13T04:03:57.240Z,69.50
2023-04-13T04:06:29.480Z,68.92
2023-04-13T04:09:07.517Z,68.75
2023-04-13T04:11:40.699Z,68.58
2023-04-13T04:14:08.849Z,68.47
2023-04-13T04:16:35.943Z,68.23
2023-04-13T04:19:09.466Z,67.96
2023-04-13T04:21:37.004Z,67.68
2023-04-13T04:24:22.776Z,67.17
2023-04-13T04:26:55.174Z,67.40
2023-04-13T04:29:34.197Z,66.54
2023-04-13T04:32:11.134Z,66.79
2023-04-13T04:34:41.014Z,66.57
2023-04-13T04:37:20.229Z,66.44
2023-04-13T04:39:57.886Z,65.83
2023-04-13T04:42:25.959Z,64.69
2023-04-13T04:44:56.497Z,64.21
2023-04-13T04:47:30.663Z,64.02
2023-04-13T04:50:10.038Z,63.81
2023-04-13T04:52:42.688Z,63.66
2023-04-13T04:55:12.616Z,62.75
2023-04-13T04:57:41.476Z,63.18
2023-04-13T05:00:10.896Z,62.55
2023-04-13T05:02:40.207Z,61.29
2023-04-13T05:05:10.453Z,61.34
2023-04-13T05:07:38.373Z,60.28
2023-04-13T05:10:07.784Z,60.73
2023-04-13T05:12:37.934Z,60.13
2023-04-13T05:15:06.497Z,58.73
2023-04-13T05:17:36.416Z,58.72
2023-04-13T05:20:07.294Z,57.38
2023-04-13T05:22:52.991Z,57.76
2023-04-13T05:25:20.070Z,57.24
2023-04-13T05:27:48.088Z,57.83
2023-04-13T05:30:15.173Z,57.58
2023-04-13T05:32:44.120Z,56.96
2023-04-13T05:35:11.704Z,56.96
2023-04-13T05:37:40.208Z,55.90
2023-04-13T05:40:14.124Z,55.48
2023-04-13T05:42:42.781Z,55.28
2023-04-13T05:45:12.228Z,55.60
2023-04-13T05:47:54.685Z,54.45
2023-04-13T05:50:21.777Z,54.96
2023-04-13T05:52:48.796Z,53.47
2023-04-13T05:55:16.475Z,52.01
2023-04-13T05:57:48.478Z,52.10
2023-04-13T06:00:18.964Z,51.78
2023-04-13T06:02:56.924Z,51.15
2023-04-13T06:05:24.349Z,51.37
2023-04-13T06:07:51.770Z,51.89
2023-04-13T06:10:19.655Z,50.84
2023-04-13T06:12:48.777Z,50.21
2023-04-13T06:15:15.822Z,50.83
2023-04-13T06:17:42.915Z,50.70
2023-04-13T06:20:10.954Z,47.98
2023-04-13T06:22:37.937Z,48.60
2023-04-13T06:25:05.569Z,47.88
2023-04-13T06:27:35.358Z,48.02
2023-04-13T06:30:02.674Z,48.03
2023-04-13T06:32:33.201Z,47.82
2023-04-13T06:35:00.743Z,47.54
2023-04-13T06:37:35.180Z,46.25
2023-04-13T06:40:12.929Z,45.62
2023-04-13T06:42:47.272Z,44.44
2023-04-13T06:45:33.826Z,44.09
2023-04-13T06:48:07.073Z,42.95
2023-04-13T06:50:35.326Z,44.36
2023-04-13T06:53:04.068Z,43.24
2023-04-13T06:55:31.241Z,42.57
2023-04-13T06:57:58.736Z,41.55
2023-04-13T07:00:30.036Z,41.50
2023-04-13T07:02:58.903Z,39.65
2023-04-13T07:05:26.369Z,38.59
2023-04-13T07:07:56.388Z,38.43
2023-04-13T07:10:23.642Z,39.57
2023-04-13T07:12:52.229Z,38.98
2023-04-13T07:15:22.261Z,37.65
2023-04-13T07:17:52.600Z,38.25
2023-04-13T07:20:19.781Z,38.69
2023-04-13T07:22:47.937Z,38.26
2023-04-13T07:25:14.997Z,38.01
2023-04-13T07:27:41.842Z,37.81
2023-04-13T07:30:09.221Z,38.24
2023-04-13T07:32:41.493Z,37.60
2023-04-13T07:35:10.186Z,37.85
2023-04-13T07:37:39.145Z,37.51
2023-04-13T07:40:09.048Z,37.67
2023-04-13T07:42:36.796Z,37.59
2023-04-13T07:45:04.018Z,37.55
2023-04-13T07:47:32.573Z,37.81
2023-04-13T07:50:06.304Z,37.77
2023-04-13T07:52:33.879Z,37.90
2023-04-13T07:55:02.838Z,36.80
2023-04-13T07:57:33.577Z,38.31
2023-04-13T08:00:05.156Z,37.12
2023-04-13T08:02:41.811Z,37.30
2023-04-13T08:05:13.594Z,37.04
2023-04-13T08:07:42.189Z,38.12
2023-04-13T08:10:09.712Z,38.04
2023-04-13T08:12:36.765Z,37.40
2023-04-13T08:15:05.912Z,37.84
2023-04-13T08:17:34.083Z,36.65
2023-04-13T08:20:01.243Z,37.40
2023-04-13T08:22:53.304Z,37.44
2023-04-13T08:25:21.212Z,37.28
2023-04-13T08:27:48.201Z,36.43
2023-04-13T08:30:15.273Z,37.26
2023-04-13T08:32:49.566Z,36.30
2023-04-13T08:35:17.482Z,36.53
2023-04-13T08:37:44.542Z,36.46
2023-04-13T08:40:12.202Z,36.47
2023-04-13T08:42:40.915Z,35.61
2023-04-13T08:45:09.223Z,35.40
2023-04-13T08:47:39.347Z,35.31
2023-04-13T08:50:07.655Z,35.67
2023-04-13T08:52:44.150Z,35.22
2023-04-13T08:55:15.694Z,35.48
2023-04-13T08:57:45.427Z,34.99
2023-04-13T09:00:16.281Z,34.56
2023-04-13T09:03:00.586Z,34.02
2023-04-13T09:05:31.744Z,34.86
2023-04-13T09:08:04.709Z,34.88
2023-04-13T09:10:31.657Z,34.96
2023-04-13T09:12:58.603Z,34.99
2023-04-13T09:15:25.894Z,35.17
2023-04-13T09:18:16.204Z,34.52
2023-04-13T09:21:00.184Z,33.91
2023-04-13T09:23:27.229Z,33.14
2023-04-13T09:26:07.908Z,34.27
2023-04-13T09:28:45.502Z,32.50
2023-04-13T09:31:13.856Z,31.89
2023-04-13T09:33:49.802Z,31.86
2023-04-13T09:36:17.260Z,31.27
2023-04-13T09:38:45.404Z,32.14
2023-04-13T09:41:12.532Z,31.38
2023-04-13T09:43:39.697Z,31.19
2023-04-13T09:46:16.243Z,31.33
2023-04-13T09:48:46.418Z,31.10
2023-04-13T09:51:13.389Z,30.64
2023-04-13T09:53:42.986Z,29.65
2023-04-13T09:56:09.979Z,31.98
2023-04-13T09:58:47.160Z,30.09
2023-04-13T10:01:17.175Z,29.05
2023-04-13T10:03:44.422Z,29.35
2023-04-13T10:06:11.676Z,29.74
2023-04-13T10:08:46.361Z,30.26
2023-04-13T10:11:17.307Z,30.53
2023-04-13T10:13:58.198Z,28.89
2023-04-13T10:16:44.078Z,30.21
2023-04-13T10:19:18.377Z,29.96
2023-04-13T10:21:47.526Z,29.86
2023-04-13T10:24:14.705Z,28.82
2023-04-13T10:26:42.118Z,28.86
2023-04-13T10:29:11.601Z,29.38
2023-04-13T10:31:46.652Z,29.92
2023-04-13T10:34:27.671Z,29.82
2023-04-13T10:37:14.985Z,29.50
2023-04-13T10:39:42.074Z,29.90
2023-04-13T10:42:10.004Z,30.29
2023-04-13T10:44:49.700Z,30.50
2023-04-13T10:47:18.330Z,29.21
2023-04-13T10:49:46.802Z,31.08
2023-04-13T10:52:14.289Z,29.50
2023-04-13T10:54:41.981Z,29.33
2023-04-13T10:57:11.254Z,30.19
2023-04-13T10:59:57.185Z,32.04
2023-04-13T11:02:27.170Z,30.77
2023-04-13T11:04:54.318Z,28.79
2023-04-13T11:07:23.432Z,29.32
2023-04-13T11:09:53.477Z,31.49
2023-04-13T11:12:20.505Z,30.77
2023-04-13T11:14:47.974Z,29.61
2023-04-13T11:17:16.715Z,31.04
2023-04-13T11:19:53.883Z,30.92
2023-04-13T11:22:27.646Z,30.35
2023-04-13T11:25:08.579Z,30.22
2023-04-13T11:27:35.478Z,29.35
2023-04-13T11:30:06.754Z,31.07
2023-04-13T11:32:34.398Z,31.59
2023-04-13T11:35:12.287Z,30.67
2023-04-13T11:37:41.136Z,30.35
2023-04-13T11:40:20.432Z,30.62
2023-04-13T11:42:53.392Z,29.97
2023-04-13T11:45:22.485Z,31.01
2023-04-13T11:47:50.402Z,32.23
2023-04-13T11:50:18.056Z,31.85
2023-04-13T11:52:46.655Z,31.93
2023-04-13T11:55:22.541Z,33.10
2023-04-13T11:57:50.814Z,33.29
2023-04-13T12:00:21.560Z,33.92
2023-04-13T12:03:01.101Z,33.66
2023-04-13T12:05:31.547Z,32.56
2023-04-13T12:07:59.478Z,32.33
2023-04-13T12:10:38.342Z,33.38
2023-04-13T12:13:18.473Z,33.80
2023-04-13T12:16:07.776Z,34.27
2023-04-13T12:18:46.106Z,31.99
2023-04-13T12:21:16.442Z,32.17
2023-04-13T12:23:57.291Z,30.68
2023-04-13T12:29:14.407Z,31.41
2023-04-13T12:31:41.623Z,31.97
2023-04-13T12:34:08.633Z,32.11
2023-04-13T12:36:36.884Z,31.11
2023-04-13T12:39:04.601Z,31.20
2023-04-13T12:41:32.978Z,31.55
2023-04-13T12:44:00.104Z,31.23
2023-04-13T12:46:27.013Z,31.25
2023-04-13T12:48:54.189Z,33.00
2023-04-13T12:51:24.192Z,33.45
2023-04-13T12:53:51.259Z,33.24
2023-04-13T12:56:18.485Z,32.33
2023-04-13T12:58:45.479Z,32.32
2023-04-13T13:01:14.103Z,32.04
2023-04-13T13:03:41.465Z,32.96
2023-04-13T13:06:08.586Z,32.18
2023-04-13T13:08:38.365Z,32.00
2023-04-13T13:11:08.405Z,32.92
2023-04-13T13:13:35.972Z,33.62
2023-04-13T13:16:03.689Z,33.75
2023-04-13T13:18:42.709Z,33.23
2023-04-13T13:21:17.162Z,33.33
2023-04-13T13:23:45.449Z,33.75
2023-04-13T13:26:23.702Z,33.56
2023-04-13T13:28:52.350Z,32.84
2023-04-13T13:31:19.707Z,32.47
2023-04-13T13:33:46.948Z,32.68
2023-04-13T13:36:14.718Z,33.02
2023-04-13T13:38:43.121Z,33.48
2023-04-13T13:41:10.445Z,34.80
2023-04-13T13:43:38.041Z,34.90
2023-04-13T13:46:08.373Z,34.88
2023-04-13T13:48:37.745Z,34.82
2023-04-13T13:51:25.026Z,34.96
2023-04-13T13:53:51.910Z,34.83
2023-04-13T13:56:19.142Z,34.80
2023-04-13T13:58:46.149Z,34.65
2023-04-13T14:01:13.096Z,35.72
2023-04-13T14:03:40.117Z,34.95
2023-04-13T14:06:07.820Z,34.00
2023-04-13T14:08:35.038Z,35.50
2023-04-13T14:11:03.164Z,36.04
2023-04-13T14:13:31.128Z,35.75
2023-04-13T14:15:58.171Z,35.62
2023-04-13T14:18:25.218Z,34.65
2023-04-13T14:20:52.224Z,35.03
2023-04-13T14:23:19.152Z,35.79
2023-04-13T14:25:46.463Z,35.41
2023-04-13T14:28:14.728Z,35.40
2023-04-13T14:30:45.261Z,34.81
2023-04-13T14:33:14.746Z,35.32
2023-04-13T14:35:41.708Z,36.25
2023-04-13T14:38:08.673Z,35.78
2023-04-13T14:40:36.008Z,34.97
2023-04-13T14:43:02.963Z,35.29
2023-04-13T14:45:29.846Z,36.02
2023-04-13T14:47:56.766Z,36.30
2023-04-13T14:50:24.332Z,36.35
2023-04-13T14:52:52.431Z,36.70
2023-04-13T14:55:19.480Z,36.27
2023-04-13T14:57:47.293Z,35.90
2023-04-13T15:00:18.180Z,35.40
2023-04-13T15:02:45.391Z,35.36
2023-04-13T15:05:12.783Z,36.63
2023-04-13T15:07:40.290Z,36.38
2023-04-13T15:10:08.601Z,35.88
2023-04-13T15:12:35.655Z,36.00
2023-04-13T15:15:02.852Z,36.14
2023-04-13T15:17:30.840Z,36.10
2023-04-13T15:19:57.808Z,36.15
2023-04-13T15:22:24.857Z,36.40
2023-04-13T15:24:51.867Z,37.04
2023-04-13T15:27:18.795Z,37.60
2023-04-13T15:29:45.924Z,37.22
2023-04-13T15:32:12.854Z,37.74
2023-04-13T15:34:40.707Z,37.46
2023-04-13T15:37:07.689Z,37.65
2023-04-13T15:39:34.748Z,37.43
2023-04-13T15:42:02.381Z,37.64
2023-04-13T15:44:29.362Z,37.92
2023-04-13T15:46:56.324Z,37.54
2023-04-13T15:49:23.264Z,38.33
2023-04-13T15:51:50.211Z,38.05
2023-04-13T15:54:17.391Z,37.30
2023-04-13T15:56:44.407Z,37.53
2023-04-13T15:59:11.503Z,37.89
2023-04-13T16:01:48.726Z,38.09
2023-04-13T16:04:16.448Z,38.46
2023-04-13T16:06:43.637Z,38.39
2023-04-13T16:09:10.938Z,38.48
2023-04-13T16:11:42.258Z,38.11
2023-04-13T16:14:09.231Z,38.12
2023-04-13T16:16:46.916Z,38.32
2023-04-13T16:19:14.054Z,38.52
2023-04-13T16:21:44.030Z,38.47
2023-04-13T16:24:11.104Z,38.87
2023-04-13T16:26:38.227Z,38.67
2023-04-13T16:29:05.381Z,38.96
2023-04-13T16:31:32.473Z,39.16
2023-04-13T16:33:59.506Z,38.99
2023-04-13T16:36:27.413Z,39.78
2023-04-13T16:38:54.501Z,40.27
2023-04-13T16:41:21.412Z,40.42
2023-04-13T16:43:48.335Z,40.43
2023-04-13T16:46:16.209Z,41.12
2023-04-13T16:48:43.160Z,41.09
2023-04-13T16:51:10.068Z,40.62
2023-04-13T16:53:37.100Z,40.38
2023-04-13T16:56:04.119Z,40.31
2023-04-13T16:58:31.549Z,40.56
2023-04-13T17:00:58.926Z,40.34
2023-04-13T17:03:29.097Z,40.42
2023-04-13T17:05:56.408Z,40.59
2023-04-13T17:08:23.829Z,41.06
2023-04-13T17:10:54.403Z,41.39
2023-04-13T17:13:21.800Z,41.27
2023-04-13T17:15:48.876Z,40.86
2023-04-13T17:18:15.840Z,41.14
2023-04-13T17:20:42.733Z,40.90
2023-04-13T17:23:09.823Z,41.04
2023-04-13T17:25:41.474Z,40.96
2023-04-13T17:28:08.509Z,41.55
2023-04-13T17:30:35.788Z,41.62
2023-04-13T17:33:04.510Z,42.18
2023-04-13T17:35:31.545Z,40.94
2023-04-13T17:37:58.491Z,41.17
2023-04-13T17:40:25.587Z,41.35
2023-04-13T17:42:52.572Z,42.04
2023-04-13T17:45:19.731Z,41.85
2023-04-13T17:48:12.102Z,41.59
2023-04-13T17:50:39.200Z,42.00
2023-04-13T17:53:06.060Z,42.44
2023-04-13T17:55:36.223Z,42.26
2023-04-13T17:58:03.105Z,41.91
2023-04-13T18:00:30.202Z,42.37
2023-04-13T18:02:58.356Z,42.53
2023-04-13T18:05:26.678Z,42.55
2023-04-13T18:07:56.544Z,42.52
2023-04-13T18:10:24.653Z,42.78
2023-04-13T18:12:51.806Z,42.98
2023-04-13T18:15:18.735Z,43.04
2023-04-13T18:17:46.063Z,43.09
2023-04-13T18:20:13.103Z,43.27
2023-04-13T18:22:40.033Z,44.16
2023-04-13T18:25:07.220Z,44.54
2023-04-13T18:27:34.733Z,44.64
2023-04-13T18:30:01.870Z,44.70
2023-04-13T18:32:30.952Z,44.59
2023-04-13T18:34:58.203Z,44.48
2023-04-13T18:37:25.436Z,44.81
2023-04-13T18:39:53.981Z,44.68
2023-04-13T18:42:21.021Z,45.03
2023-04-13T18:44:48.071Z,45.73
2023-04-13T18:47:15.068Z,45.28
2023-04-13T18:49:42.068Z,45.42
2023-04-13T18:52:09.003Z,45.56
2023-04-13T18:54:36.586Z,45.79
2023-04-13T18:57:03.775Z,46.15
2023-04-13T18:59:30.802Z,45.24
2023-04-13T19:01:57.837Z,45.77
2023-04-13T19:04:25.097Z,46.29
2023-04-13T19:06:52.492Z,46.02
2023-04-13T19:09:19.508Z,46.41
2023-04-13T19:11:49.479Z,46.30
2023-04-13T19:14:16.561Z,46.28
2023-04-13T19:16:45.690Z,46.01
2023-04-13T19:19:15.836Z,46.53
2023-04-13T19:21:43.014Z,46.89
2023-04-13T19:24:13.099Z,46.83
2023-04-13T19:26:40.923Z,47.15
2023-04-13T19:29:12.680Z,46.55
2023-04-13T19:31:41.485Z,47.53
2023-04-13T19:34:08.984Z,46.89
2023-04-13T19:36:37.059Z,47.27
2023-04-13T19:39:05.803Z,46.86
2023-04-13T19:41:33.009Z,47.55
2023-04-13T19:44:00.701Z,47.72
2023-04-13T19:46:28.651Z,48.02
2023-04-13T19:48:58.873Z,47.96
2023-04-13T19:51:29.456Z,47.95
2023-04-13T19:53:57.727Z,47.70
2023-04-13T19:56:25.270Z,48.05
2023-04-13T19:58:55.324Z,48.42
2023-04-13T20:01:22.743Z,48.14
2023-04-13T20:03:50.269Z,48.40
2023-04-13T20:06:17.668Z,47.89
2023-04-13T20:08:45.000Z,47.90
2023-04-13T20:11:12.126Z,47.89
2023-04-13T20:13:39.846Z,48.44
2023-04-13T20:16:06.997Z,48.90
2023-04-13T20:18:34.116Z,47.95
2023-04-13T20:21:01.030Z,47.60
2023-04-13T20:23:29.842Z,47.84
2023-04-13T20:25:57.011Z,48.28
2023-04-13T20:28:24.151Z,48.08
2023-04-13T20:30:51.549Z,47.99
2023-04-13T20:33:18.561Z,48.69
2023-04-13T20:35:45.754Z,48.37
2023-04-13T20:38:14.212Z,48.58
2023-04-13T20:40:41.905Z,48.75
2023-04-13T20:43:11.000Z,48.58
2023-04-13T20:45:38.440Z,48.41
2023-04-13T20:50:36.541Z,49.23
2023-04-13T20:53:04.900Z,49.85
2023-04-13T20:55:32.555Z,48.86
2023-04-13T20:57:59.452Z,48.89
2023-04-13T21:00:27.606Z,48.87
2023-04-13T21:02:55.051Z,48.08
2023-04-13T21:05:22.478Z,47.71
2023-04-13T21:07:50.217Z,46.82
2023-04-13T21:10:17.816Z,46.86
2023-04-13T21:12:44.912Z,46.93
2023-04-13T21:15:12.022Z,46.99
2023-04-13T21:17:39.155Z,47.53
2023-04-13T21:20:08.943Z,47.01
2023-04-13T21:22:36.522Z,46.91
2023-04-13T21:25:04.148Z,46.60
2023-04-13T21:27:31.126Z,46.08
2023-04-13T21:29:58.964Z,45.71
2023-04-13T21:32:26.014Z,45.83
2023-04-13T21:34:55.110Z,46.80
2023-04-13T21:37:22.081Z,47.29
2023-04-13T21:39:49.094Z,47.65
2023-04-13T21:42:17.022Z,47.19
2023-04-13T21:44:43.990Z,46.51
2023-04-13T21:47:10.820Z,46.23
2023-04-13T21:49:37.727Z,45.56
2023-04-13T21:52:04.711Z,46.54
2023-04-13T21:54:31.653Z,46.87
2023-04-13T21:56:58.832Z,46.49
2023-04-13T21:59:27.402Z,45.72
2023-04-13T22:01:54.911Z,46.62
2023-04-13T22:04:22.286Z,46.35
2023-04-13T22:06:49.422Z,45.85
2023-04-13T22:09:16.541Z,46.04
2023-04-13T22:11:43.464Z,46.13
2023-04-13T22:14:10.820Z,46.73
2023-04-13T22:16:37.755Z,46.75
2023-04-13T22:19:04.718Z,46.68
2023-04-13T22:21:34.407Z,46.47
2023-04-13T22:24:01.330Z,46.71
2023-04-13T22:26:28.360Z,46.23
2023-04-13T22:28:55.735Z,46.81
2023-04-13T22:31:22.868Z,47.11
2023-04-13T22:33:49.801Z,47.67
2023-04-13T22:36:20.629Z,47.56
2023-04-13T22:38:47.983Z,47.77
2023-04-13T22:41:14.925Z,47.88
2023-04-13T22:43:41.879Z,47.92
2023-04-13T22:46:08.846Z,47.88
2023-04-13T22:48:36.082Z,48.30
2023-04-13T22:51:05.869Z,48.02
2023-04-13T22:53:32.961Z,48.11
2023-04-13T22:56:00.872Z,48.29
2023-04-13T22:58:28.077Z,48.53
2023-04-13T23:00:55.459Z,48.59
2023-04-13T23:03:22.640Z,49.07
2023-04-13T23:05:49.981Z,49.50
2023-04-13T23:08:17.001Z,49.28
2023-04-13T23:10:43.858Z,49.18
2023-04-13T23:13:10.957Z,49.43
2023-04-13T23:15:39.437Z,49.66
2023-04-13T23:18:06.539Z,50.07
2023-04-13T23:20:33.462Z,49.88
2023-04-13T23:23:00.521Z,50.20
2023-04-13T23:25:27.554Z,50.58
2023-04-13T23:27:54.588Z,50.51
2023-04-13T23:30:21.573Z,51.18
2023-04-13T23:32:48.496Z,51.54
2023-04-13T23:35:15.462Z,52.11
2023-04-13T23:37:43.533Z,51.69
2023-04-13T23:40:10.999Z,51.46
2023-04-13T23:42:39.337Z,51.67
2023-04-13T23:45:07.483Z,52.29
2023-04-13T23:47:34.544Z,51.89
2023-04-13T23:50:01.763Z,52.14
2023-04-13T23:52:29.483Z,52.50
2023-04-13T23:54:57.168Z,52.52
2023-04-13T23:57:24.111Z,52.78
2023-04-13T23:59:57.364Z,52.95
